Main page
METAR-TAF:

METAR-TAF

Airports :

Ljubljana, Slovenia

Ljubljana Jože Pučnik Airport

latitude: 46-13N, longitude: 014-29E, elevation: 385 m

Current weather observation

The report was made 21 minutes ago, at 22:30 UTC
Wind 4 kt from the East
Temperature 10°C
Humidity 93%
Pressure 1020 hPa
Visibility 10 km or more
Few clouds at a height of 1000 ft
Overcast at a height of 4000 ft
light rain

METAR: LJLJ 262230Z 09004KT 9999 -RA FEW010 OVC040 10/09 Q1020 NOSIG

Time: 00:51 (22:51 UTC)

Forecast

The report was made 2 hours and 51 minutes ago, at 20:00 UTC
Forecast valid from 26 at 21 UTC to 27 at 21 UTC
Wind 5 kt from the East
Visibility 10 km or more
Broken clouds at a height of 4000 ft
Temporary
from 26 at 21 UTC to 27 at 06 UTC
Overcast at a height of 3500 ft
light rain
Becoming
from 27 at 10 UTC to 27 at 13 UTC
Scattered clouds at a height of 5000 ft

TAF: LJLJ 262000Z 2621/2721 10005KT 9999 BKN040 TEMPO 2621/2706 -RA OVC035 BECMG 2710/2713 SCT050

Weather observations and forecasts of more than 4000 airports (METAR and TAF reports).

The available stations are represented by yellow and red dots on the map.

Hover mouse over dot to see the name of the station.

Then click to see weather observations and forecasts.

To change the map : click on the green buttons with a black cross to zoom in, on the green button with a dash to zoom out, or on the green arrows for adjacent maps.


METAR-TAF: